Time;durP1;ratioP1;P1;durP2;ratioP2;P2;SDS_P1;SDS_P2;PMS_P1;PMS_P2;Temp;Humidity;BMP_temperature;BMP_pressure;BME280_temperature;BME280_humidity;BME280_pressure;Samples;Min_cycle;Max_cycle;Signal;HPM_P1;HPM_P2
2023/12/08 00:03:18;;;;;;;10.90;6.60;;;;;;;;;;10443914;28;20480;-67
2023/12/08 00:08:19;;;;;;;12.60;5.82;;;;;;;;;;10442749;28;20079;-66
2023/12/08 00:13:19;;;;;;;9.55;6.05;;;;;;;;;;10442026;28;20029;-66
2023/12/08 00:18:21;;;;;;;14.20;6.97;;;;;;;;;;10415429;28;20022;-63
2023/12/08 00:23:21;;;;;;;7.70;5.25;;;;;;;;;;10429223;28;20029;-64
2023/12/08 00:28:22;;;;;;;15.82;7.30;;;;;;;;;;10435625;28;20248;-64
2023/12/08 00:33:23;;;;;;;8.73;5.82;;;;;;;;;;10439846;28;20522;-63
2023/12/08 00:38:23;;;;;;;10.10;6.22;;;;;;;;;;10442121;28;20400;-64
2023/12/08 00:43:24;;;;;;;11.52;6.07;;;;;;;;;;10449199;28;20033;-63
2023/12/08 00:48:24;;;;;;;7.65;5.60;;;;;;;;;;10451271;28;20591;-64
2023/12/08 00:53:25;;;;;;;7.43;5.53;;;;;;;;;;10452122;28;20037;-64
2023/12/08 00:58:26;;;;;;;7.30;5.20;;;;;;;;;;10449872;28;20485;-62
2023/12/08 01:03:27;;;;;;;8.73;5.55;;;;;;;;;;10449845;28;20029;-62
2023/12/08 01:08:27;;;;;;;9.93;5.90;;;;;;;;;;10462662;28;20542;-62
2023/12/08 01:13:28;;;;;;;9.52;5.63;;;;;;;;;;10448635;28;20079;-62
2023/12/08 01:18:28;;;;;;;8.20;5.55;;;;;;;;;;10449336;28;20028;-62
2023/12/08 01:23:29;;;;;;;8.73;5.43;;;;;;;;;;10450326;28;20036;-65
2023/12/08 01:28:30;;;;;;;8.18;5.38;;;;;;;;;;10450936;28;20036;-65
2023/12/08 01:33:30;;;;;;;8.85;5.45;;;;;;;;;;10447550;28;20082;-65
2023/12/08 01:38:31;;;;;;;9.45;5.53;;;;;;;;;;10448347;28;20480;-64
2023/12/08 01:43:31;;;;;;;10.48;5.90;;;;;;;;;;10448924;28;20538;-64
2023/12/08 01:48:32;;;;;;;7.00;5.80;;;;;;;;;;10448882;28;20485;-63
2023/12/08 01:53:33;;;;;;;9.65;5.68;;;;;;;;;;10447511;28;20523;-63
2023/12/08 01:58:34;;;;;;;6.93;5.15;;;;;;;;;;10435899;28;20062;-63
2023/12/08 02:03:35;;;;;;;7.38;5.45;;;;;;;;;;10435173;28;20036;-64
2023/12/08 02:08:36;;;;;;;8.45;5.93;;;;;;;;;;10445041;28;20387;-62
2023/12/08 02:13:37;;;;;;;7.50;5.47;;;;;;;;;;10447819;28;20033;-63
2023/12/08 02:18:38;;;;;;;8.93;4.63;;;;;;;;;;10446043;28;20441;-66
2023/12/08 02:23:48;;;;;;;8.90;5.70;;;;;;;;;;10445524;28;20176;-66
2023/12/08 02:28:49;;;;;;;7.30;5.25;;;;;;;;;;10447403;28;20171;-67
2023/12/08 02:33:52;;;;;;;6.78;5.32;;;;;;;;;;10446384;28;20025;-66
2023/12/08 02:38:54;;;;;;;6.65;5.20;;;;;;;;;;10462326;28;20020;-66
2023/12/08 02:43:54;;;;;;;9.27;5.00;;;;;;;;;;10446043;28;20496;-65
2023/12/08 02:48:55;;;;;;;6.63;4.80;;;;;;;;;;10445907;28;20035;-62
2023/12/08 02:53:55;;;;;;;8.52;4.82;;;;;;;;;;10431299;28;20049;-62
2023/12/08 02:58:56;;;;;;;6.93;5.15;;;;;;;;;;10444318;28;20176;-62
2023/12/08 03:03:57;;;;;;;6.15;4.82;;;;;;;;;;10427384;28;20134;-62
2023/12/08 03:08:57;;;;;;;5.47;4.60;;;;;;;;;;10427243;28;20029;-63
2023/12/08 03:13:58;;;;;;;6.68;5.25;;;;;;;;;;10442866;28;20029;-63
2023/12/08 03:18:58;;;;;;;7.32;5.10;;;;;;;;;;10444366;28;20028;-64
2023/12/08 03:23:59;;;;;;;5.63;4.60;;;;;;;;;;10443226;28;20029;-63
2023/12/08 03:28:59;;;;;;;12.40;4.97;;;;;;;;;;10438761;28;20271;-63
2023/12/08 03:34:00;;;;;;;7.82;4.80;;;;;;;;;;10445630;28;20060;-64
2023/12/08 03:39:01;;;;;;;6.00;4.45;;;;;;;;;;10444170;28;20028;-64
2023/12/08 03:44:01;;;;;;;6.20;4.50;;;;;;;;;;10444455;28;20037;-65
2023/12/08 03:49:02;;;;;;;5.65;4.68;;;;;;;;;;10442287;28;20037;-64
2023/12/08 03:54:02;;;;;;;9.82;4.28;;;;;;;;;;10433023;28;20046;-66
2023/12/08 03:59:03;;;;;;;6.43;4.75;;;;;;;;;;10437598;28;20040;-64
2023/12/08 04:04:03;;;;;;;6.82;4.82;;;;;;;;;;10431503;28;20037;-67
2023/12/08 04:09:06;;;;;;;6.70;4.57;;;;;;;;;;10436487;28;20149;-66
2023/12/08 04:14:06;;;;;;;5.38;3.75;;;;;;;;;;10423882;28;20037;-67
2023/12/08 04:19:07;;;;;;;6.75;4.55;;;;;;;;;;10434616;28;20024;-66
2023/12/08 04:24:07;;;;;;;5.63;4.25;;;;;;;;;;10442776;28;20032;-66
2023/12/08 04:29:08;;;;;;;5.15;4.18;;;;;;;;;;10435160;28;20040;-65
2023/12/08 04:34:09;;;;;;;5.63;4.05;;;;;;;;;;10443814;28;20037;-65
2023/12/08 04:39:09;;;;;;;5.75;4.10;;;;;;;;;;10451696;28;20029;-66
2023/12/08 04:44:10;;;;;;;5.72;4.25;;;;;;;;;;10450378;28;20365;-67
2023/12/08 04:49:10;;;;;;;5.78;4.32;;;;;;;;;;10440437;28;20036;-67
2023/12/08 04:54:11;;;;;;;5.43;4.15;;;;;;;;;;10423627;28;20488;-65
2023/12/08 04:59:12;;;;;;;6.10;3.97;;;;;;;;;;10425986;28;20583;-66
2023/12/08 05:04:12;;;;;;;6.25;4.38;;;;;;;;;;10437554;28;20423;-66
2023/12/08 05:09:13;;;;;;;5.60;4.07;;;;;;;;;;10450255;28;20029;-67
2023/12/08 05:14:13;;;;;;;4.57;4.18;;;;;;;;;;10449304;28;20423;-64
2023/12/08 05:19:14;;;;;;;6.07;3.83;;;;;;;;;;10448762;28;20025;-65
2023/12/08 05:24:15;;;;;;;5.88;4.55;;;;;;;;;;10449224;28;20037;-66
2023/12/08 05:29:15;;;;;;;4.47;3.80;;;;;;;;;;10448428;28;20024;-66
2023/12/08 05:34:16;;;;;;;5.30;4.03;;;;;;;;;;10449869;28;20098;-63
2023/12/08 05:39:16;;;;;;;5.57;4.38;;;;;;;;;;10448779;28;20029;-64
2023/12/08 05:44:18;;;;;;;4.78;3.97;;;;;;;;;;10448351;28;20388;-64
2023/12/08 05:49:18;;;;;;;4.68;3.70;;;;;;;;;;10448449;28;20111;-64
2023/12/08 05:54:19;;;;;;;5.65;4.40;;;;;;;;;;10448536;28;20041;-65
2023/12/08 05:59:19;;;;;;;4.72;4.18;;;;;;;;;;10444148;28;20036;-64
2023/12/08 06:04:20;;;;;;;7.20;4.00;;;;;;;;;;10440559;28;20029;-64
2023/12/08 06:09:21;;;;;;;4.80;3.80;;;;;;;;;;10428050;28;20032;-64
2023/12/08 06:14:21;;;;;;;5.15;3.53;;;;;;;;;;10447690;28;20082;-64
2023/12/08 06:19:22;;;;;;;6.03;3.83;;;;;;;;;;10444013;28;20021;-64
2023/12/08 06:24:22;;;;;;;4.30;3.53;;;;;;;;;;10444488;28;20037;-64
2023/12/08 06:29:23;;;;;;;4.70;3.60;;;;;;;;;;10442716;28;20037;-64
2023/12/08 06:34:23;;;;;;;4.57;3.83;;;;;;;;;;10435760;28;20049;-64
2023/12/08 06:39:24;;;;;;;4.78;3.75;;;;;;;;;;10431977;28;20028;-66
2023/12/08 06:44:25;;;;;;;4.50;3.42;;;;;;;;;;10439567;28;20035;-67
2023/12/08 06:49:25;;;;;;;5.22;3.90;;;;;;;;;;10423078;28;20029;-63
2023/12/08 06:54:26;;;;;;;3.80;3.40;;;;;;;;;;10432364;28;20048;-66
2023/12/08 06:59:28;;;;;;;4.25;3.28;;;;;;;;;;10438282;28;20218;-65
2023/12/08 07:04:28;;;;;;;4.10;3.50;;;;;;;;;;10440935;28;20234;-66
2023/12/08 07:09:29;;;;;;;4.18;3.78;;;;;;;;;;10441898;28;20040;-66
2023/12/08 07:14:29;;;;;;;3.47;3.13;;;;;;;;;;10440303;28;20032;-66
2023/12/08 07:19:30;;;;;;;4.20;3.25;;;;;;;;;;10442185;28;20032;-65
2023/12/08 07:24:31;;;;;;;5.10;3.70;;;;;;;;;;10441955;28;20044;-65
2023/12/08 07:29:32;;;;;;;3.63;3.33;;;;;;;;;;10440931;28;20033;-65
2023/12/08 07:34:32;;;;;;;4.70;3.40;;;;;;;;;;10441248;28;20033;-65
2023/12/08 07:39:33;;;;;;;4.32;3.45;;;;;;;;;;10440242;28;20087;-64
2023/12/08 07:44:35;;;;;;;5.32;3.22;;;;;;;;;;10442108;28;20036;-63
2023/12/08 07:49:35;;;;;;;4.30;3.58;;;;;;;;;;10442789;28;20036;-63
2023/12/08 07:54:36;;;;;;;3.97;3.65;;;;;;;;;;10439326;28;20076;-67
2023/12/08 07:59:36;;;;;;;4.35;3.05;;;;;;;;;;10442676;28;20039;-64
2023/12/08 08:04:37;;;;;;;3.97;3.40;;;;;;;;;;10442995;28;20041;-63
2023/12/08 08:09:37;;;;;;;5.13;2.95;;;;;;;;;;10443105;28;20048;-66
2023/12/08 08:14:38;;;;;;;5.43;3.25;;;;;;;;;;10434575;28;20025;-65
2023/12/08 08:19:41;;;;;;;4.35;2.90;;;;;;;;;;10444761;28;20037;-66
2023/12/08 08:24:41;;;;;;;4.20;3.20;;;;;;;;;;10430365;28;20438;-65
2023/12/08 08:29:42;;;;;;;4.15;3.08;;;;;;;;;;10432309;28;20029;-65
2023/12/08 08:34:43;;;;;;;3.40;3.10;;;;;;;;;;10436890;28;20116;-65
2023/12/08 08:39:44;;;;;;;8.93;3.63;;;;;;;;;;10444093;28;20488;-66
2023/12/08 08:44:44;;;;;;;3.63;3.08;;;;;;;;;;10439121;28;20029;-64
2023/12/08 08:49:45;;;;;;;6.25;3.40;;;;;;;;;;10436756;28;20079;-63
2023/12/08 08:54:46;;;;;;;6.72;2.92;;;;;;;;;;10440484;28;20045;-65
2023/12/08 08:59:47;;;;;;;4.18;3.30;;;;;;;;;;10431824;28;20590;-65
2023/12/08 09:04:47;;;;;;;5.32;2.63;;;;;;;;;;10445909;28;20036;-65
2023/12/08 09:09:48;;;;;;;4.18;2.97;;;;;;;;;;10444629;28;20039;-65
2023/12/08 09:14:49;;;;;;;4.75;2.67;;;;;;;;;;10438476;28;20037;-65
2023/12/08 09:19:50;;;;;;;4.05;3.05;;;;;;;;;;10447890;28;20025;-63
2023/12/08 09:24:50;;;;;;;3.90;3.10;;;;;;;;;;10436938;28;20047;-63
2023/12/08 09:29:51;;;;;;;3.33;2.97;;;;;;;;;;10435537;28;20025;-63
2023/12/08 09:34:52;;;;;;;3.50;2.42;;;;;;;;;;10434379;28;20052;-63
2023/12/08 09:39:52;;;;;;;4.32;2.95;;;;;;;;;;10447625;28;20412;-63
2023/12/08 09:44:54;;;;;;;6.40;3.45;;;;;;;;;;10442713;28;20496;-63
2023/12/08 09:49:55;;;;;;;5.32;3.13;;;;;;;;;;10446156;28;20025;-66
2023/12/08 09:54:57;;;;;;;6.97;3.13;;;;;;;;;;10439214;28;20416;-65
2023/12/08 09:59:59;;;;;;;4.20;2.90;;;;;;;;;;10437906;28;20021;-64
2023/12/08 10:05:00;;;;;;;4.40;3.00;;;;;;;;;;10425074;28;20025;-65
2023/12/08 10:10:02;;;;;;;10.43;3.13;;;;;;;;;;10429048;28;20392;-65
2023/12/08 10:15:07;;;;;;;5.00;3.05;;;;;;;;;;10444905;28;20079;-64
2023/12/08 10:20:10;;;;;;;11.15;3.10;;;;;;;;;;10441709;28;20037;-70
2023/12/08 10:25:14;;;;;;;9.73;3.58;;;;;;;;;;10431258;28;20400;-64
2023/12/08 10:30:16;;;;;;;5.55;4.00;;;;;;;;;;10419487;28;20048;-65
2023/12/08 10:35:17;;;;;;;8.50;3.58;;;;;;;;;;10437598;28;20032;-65
2023/12/08 10:40:18;;;;;;;4.90;3.70;;;;;;;;;;10440379;28;21158;-65
2023/12/08 10:45:19;;;;;;;9.88;3.78;;;;;;;;;;10431501;28;20045;-65
2023/12/08 10:50:21;;;;;;;6.60;4.28;;;;;;;;;;10439774;28;20391;-65
2023/12/08 10:55:21;;;;;;;10.88;4.47;;;;;;;;;;10442264;28;20124;-64
2023/12/08 11:00:25;;;;;;;6.30;4.28;;;;;;;;;;10443030;28;20514;-64
2023/12/08 11:05:37;;;;;;;7.68;4.57;;;;;;;;;;10440857;28;20029;-64
2023/12/08 11:10:38;;;;;;;6.90;4.30;;;;;;;;;;10443078;28;20428;-65
2023/12/08 11:15:46;;;;;;;5.30;4.22;;;;;;;;;;10437610;28;20040;-64
2023/12/08 11:20:46;;;;;;;8.40;4.57;;;;;;;;;;10440309;28;20484;-63
2023/12/08 11:26:37;;;;;;;8.93;5.50;;;;;;;;;;10431982;28;20032;-63
2023/12/08 11:31:59;;;;;;;7.32;5.28;;;;;;;;;;10417620;28;20041;-64
2023/12/08 11:37:01;;;;;;;13.88;5.43;;;;;;;;;;10428179;28;20037;-63
2023/12/08 11:42:10;;;;;;;15.25;5.22;;;;;;;;;;10442255;28;20064;-63
2023/12/08 11:47:16;;;;;;;12.68;5.38;;;;;;;;;;10444787;28;20071;-63
2023/12/08 11:52:25;;;;;;;7.95;5.65;;;;;;;;;;10471412;23;20087;-61
2023/12/08 11:57:27;;;;;;;26.30;4.97;;;;;;;;;;10483712;28;20094;-61
2023/12/08 12:02:28;;;;;;;6.35;4.50;;;;;;;;;;10460941;28;20067;-61
2023/12/08 12:07:29;;;;;;;7.72;4.80;;;;;;;;;;10478125;28;20159;-60
2023/12/08 12:12:32;;;;;;;11.73;5.03;;;;;;;;;;10460419;28;20074;-60
2023/12/08 12:17:32;;;;;;;7.25;5.30;;;;;;;;;;10485757;28;20082;-60
2023/12/08 12:22:33;;;;;;;8.77;5.38;;;;;;;;;;10484001;28;20089;-60
2023/12/08 12:27:41;;;;;;;10.55;6.13;;;;;;;;;;10485302;28;20032;-61
2023/12/08 12:32:44;;;;;;;12.70;5.97;;;;;;;;;;10484901;28;20086;-60
2023/12/08 12:37:45;;;;;;;9.18;4.93;;;;;;;;;;10487109;28;20377;-61
2023/12/08 12:42:48;;;;;;;6.63;5.15;;;;;;;;;;10492039;28;20444;-61
2023/12/08 12:47:48;;;;;;;11.13;5.22;;;;;;;;;;10491298;28;20077;-62
2023/12/08 12:52:49;;;;;;;7.57;5.45;;;;;;;;;;10468460;28;20044;-61
2023/12/08 12:57:50;;;;;;;9.32;5.68;;;;;;;;;;10471638;28;20043;-60
2023/12/08 13:02:51;;;;;;;10.63;5.10;;;;;;;;;;10489064;28;20510;-61
2023/12/08 13:07:58;;;;;;;8.90;5.65;;;;;;;;;;10489049;28;20029;-60
2023/12/08 13:12:59;;;;;;;7.20;4.80;;;;;;;;;;10490665;28;20028;-60
2023/12/08 13:17:59;;;;;;;9.02;5.40;;;;;;;;;;10488567;28;20024;-61
2023/12/08 13:23:01;;;;;;;10.32;5.55;;;;;;;;;;10486699;28;20032;-62
2023/12/08 13:28:01;;;;;;;8.30;5.45;;;;;;;;;;10492138;28;20440;-60
2023/12/08 13:33:02;;;;;;;7.72;5.88;;;;;;;;;;10488775;28;20036;-60
2023/12/08 13:38:02;;;;;;;11.35;7.68;;;;;;;;;;10486569;28;20027;-59
2023/12/08 13:43:03;;;;;;;9.88;7.15;;;;;;;;;;10490658;28;20071;-61
2023/12/08 13:48:04;;;;;;;12.52;8.80;;;;;;;;;;10485577;28;20117;-60
2023/12/08 13:53:05;;;;;;;13.90;9.20;;;;;;;;;;10490521;28;20711;-62
2023/12/08 13:58:06;;;;;;;15.27;9.13;;;;;;;;;;10488918;28;20276;-62
2023/12/08 14:03:06;;;;;;;20.35;9.25;;;;;;;;;;10478757;28;20036;-61
2023/12/08 14:08:08;;;;;;;16.00;8.40;;;;;;;;;;10488114;28;20031;-62
2023/12/08 14:13:08;;;;;;;14.80;8.52;;;;;;;;;;10490251;28;20077;-61
2023/12/08 14:18:09;;;;;;;19.58;8.32;;;;;;;;;;10486678;28;20062;-61
2023/12/08 14:23:11;;;;;;;13.65;8.93;;;;;;;;;;10487512;28;20135;-62
2023/12/08 14:28:11;;;;;;;17.80;8.35;;;;;;;;;;10479705;28;20025;-61
2023/12/08 14:33:13;;;;;;;19.95;7.60;;;;;;;;;;10483707;28;20506;-62
2023/12/08 14:38:15;;;;;;;12.95;7.03;;;;;;;;;;10466895;28;20388;-62
2023/12/08 14:43:15;;;;;;;33.08;7.25;;;;;;;;;;10478036;28;20525;-62
2023/12/08 14:48:16;;;;;;;17.42;7.30;;;;;;;;;;10483873;28;21022;-62
2023/12/08 14:53:17;;;;;;;12.60;6.15;;;;;;;;;;10481388;28;20094;-63
2023/12/08 14:58:17;;;;;;;9.18;6.03;;;;;;;;;;10482752;28;20039;-62
2023/12/08 15:03:18;;;;;;;14.13;6.30;;;;;;;;;;10485655;28;20103;-60
2023/12/08 15:08:19;;;;;;;12.93;5.80;;;;;;;;;;10486403;28;20028;-61
2023/12/08 15:13:19;;;;;;;18.00;6.45;;;;;;;;;;10483582;28;20090;-61
2023/12/08 15:18:20;;;;;;;14.63;6.30;;;;;;;;;;10483852;28;20501;-61
2023/12/08 15:23:21;;;;;;;17.10;6.30;;;;;;;;;;10482062;28;20603;-62
2023/12/08 15:28:22;;;;;;;10.93;5.13;;;;;;;;;;10480654;28;20027;-61
2023/12/08 15:33:22;;;;;;;10.45;6.63;;;;;;;;;;10483105;28;20027;-61
2023/12/08 15:38:23;;;;;;;13.07;6.00;;;;;;;;;;10487447;28;20025;-61
2023/12/08 15:43:24;;;;;;;7.47;5.65;;;;;;;;;;10487753;28;20028;-61
2023/12/08 15:48:24;;;;;;;8.90;5.32;;;;;;;;;;10487314;28;20086;-59
2023/12/08 15:53:25;;;;;;;7.53;5.38;;;;;;;;;;10487174;28;20562;-61
2023/12/08 15:58:25;;;;;;;11.77;5.95;;;;;;;;;;10486774;28;20043;-60
2023/12/08 16:03:26;;;;;;;10.10;5.75;;;;;;;;;;10485795;28;20024;-62
2023/12/08 16:08:26;;;;;;;9.60;4.93;;;;;;;;;;10487450;28;20024;-60
2023/12/08 16:13:27;;;;;;;12.50;5.18;;;;;;;;;;10494320;28;20029;-60
2023/12/08 16:18:30;;;;;;;9.15;5.38;;;;;;;;;;10496351;28;20062;-61
2023/12/08 16:23:31;;;;;;;14.23;5.35;;;;;;;;;;10494143;28;20031;-61
2023/12/08 16:28:31;;;;;;;9.52;5.50;;;;;;;;;;10490016;28;20025;-61
2023/12/08 16:33:35;;;;;;;6.75;5.03;;;;;;;;;;10494762;28;20023;-60
2023/12/08 16:38:35;;;;;;;8.32;5.40;;;;;;;;;;10493300;28;20426;-60
2023/12/08 16:43:36;;;;;;;7.32;4.82;;;;;;;;;;10487058;28;20082;-60
2023/12/08 16:48:36;;;;;;;8.68;5.43;;;;;;;;;;10487223;28;20396;-61
2023/12/08 16:53:37;;;;;;;10.75;5.43;;;;;;;;;;10493470;28;20074;-61
2023/12/08 16:58:38;;;;;;;9.75;5.30;;;;;;;;;;10481488;28;20117;-61
2023/12/08 17:03:38;;;;;;;9.88;5.68;;;;;;;;;;10478316;28;20036;-61
2023/12/08 17:08:43;;;;;;;8.55;5.90;;;;;;;;;;10490238;28;20013;-61
2023/12/08 17:13:44;;;;;;;10.20;5.90;;;;;;;;;;10492926;28;20440;-60
2023/12/08 17:18:44;;;;;;;7.88;5.28;;;;;;;;;;10492841;28;20033;-60
2023/12/08 17:23:45;;;;;;;10.32;5.97;;;;;;;;;;10492311;28;20040;-61
2023/12/08 17:28:45;;;;;;;8.73;4.93;;;;;;;;;;10486634;28;20080;-61
2023/12/08 17:33:47;;;;;;;9.43;6.13;;;;;;;;;;10489524;28;20028;-61
2023/12/08 17:38:47;;;;;;;9.75;5.60;;;;;;;;;;10486159;28;20263;-62
2023/12/08 17:43:48;;;;;;;7.32;5.55;;;;;;;;;;10485355;28;20184;-61
2023/12/08 17:48:48;;;;;;;9.00;5.60;;;;;;;;;;10488714;28;20403;-60
2023/12/08 17:53:49;;;;;;;9.23;5.70;;;;;;;;;;10487375;28;20047;-62
2023/12/08 17:58:49;;;;;;;8.20;5.55;;;;;;;;;;10485151;28;20032;-61
2023/12/08 18:03:50;;;;;;;5.95;4.75;;;;;;;;;;10490765;28;20040;-61
2023/12/08 18:08:50;;;;;;;7.88;5.30;;;;;;;;;;10490254;28;20093;-61
2023/12/08 18:13:53;;;;;;;7.63;5.57;;;;;;;;;;10487973;28;20024;-61
2023/12/08 18:18:56;;;;;;;9.57;4.63;;;;;;;;;;10477547;28;20041;-59
2023/12/08 18:23:57;;;;;;;8.63;5.57;;;;;;;;;;10472065;28;20039;-58
2023/12/08 18:28:58;;;;;;;12.55;5.72;;;;;;;;;;10489942;28;20099;-59
2023/12/08 18:34:04;;;;;;;6.35;4.60;;;;;;;;;;10487866;28;20032;-59
2023/12/08 18:39:05;;;;;;;9.90;4.95;;;;;;;;;;10489521;28;20105;-58
2023/12/08 18:44:06;;;;;;;9.13;5.18;;;;;;;;;;10488810;28;20044;-58
2023/12/08 18:49:07;;;;;;;6.57;4.63;;;;;;;;;;10485788;28;20039;-57
2023/12/08 18:54:07;;;;;;;7.72;5.00;;;;;;;;;;10485863;28;20047;-57
2023/12/08 18:59:08;;;;;;;7.13;5.10;;;;;;;;;;10474224;28;20033;-60
2023/12/08 19:04:09;;;;;;;8.13;4.65;;;;;;;;;;10481960;28;20071;-59
2023/12/08 19:09:09;;;;;;;10.80;5.00;;;;;;;;;;10487698;28;20028;-59
2023/12/08 19:14:10;;;;;;;7.93;5.50;;;;;;;;;;10479254;28;20033;-61
2023/12/08 19:19:11;;;;;;;8.43;5.78;;;;;;;;;;10483067;28;20032;-60
2023/12/08 19:24:12;;;;;;;8.27;5.78;;;;;;;;;;10481439;28;20055;-60
2023/12/08 19:29:13;;;;;;;8.90;6.10;;;;;;;;;;10486167;28;20036;-61
2023/12/08 19:34:13;;;;;;;24.73;6.00;;;;;;;;;;10479882;28;20050;-61
2023/12/08 19:39:14;;;;;;;10.23;5.40;;;;;;;;;;10483266;28;20025;-61
2023/12/08 19:44:15;;;;;;;8.38;5.50;;;;;;;;;;10481897;28;20044;-61
2023/12/08 19:49:16;;;;;;;6.75;5.28;;;;;;;;;;10483388;28;20040;-59
2023/12/08 19:54:17;;;;;;;9.95;6.40;;;;;;;;;;10481691;28;20048;-62
2023/12/08 19:59:17;;;;;;;9.10;5.35;;;;;;;;;;10474881;28;20039;-61
2023/12/08 20:04:19;;;;;;;9.02;5.85;;;;;;;;;;10476088;28;20046;-61
2023/12/08 20:09:20;;;;;;;10.00;6.50;;;;;;;;;;10485333;28;20484;-62
2023/12/08 20:14:21;;;;;;;10.15;6.22;;;;;;;;;;10486163;28;20032;-62
2023/12/08 20:19:21;;;;;;;9.30;5.82;;;;;;;;;;10472898;28;20511;-61
2023/12/08 20:24:22;;;;;;;10.73;5.90;;;;;;;;;;10468065;28;20629;-61
2023/12/08 20:29:23;;;;;;;25.65;6.05;;;;;;;;;;10470063;28;20500;-61
2023/12/08 20:34:23;;;;;;;18.95;6.78;;;;;;;;;;10470648;28;20067;-60
2023/12/08 20:44:45;;;;;;;12.80;6.65;;;;;;;;;;10392879;28;20084;-61
2023/12/08 20:49:45;;;;;;;12.65;6.15;;;;;;;;;;10388918;28;20068;-58
2023/12/08 20:54:46;;;;;;;13.00;6.72;;;;;;;;;;10388629;28;20049;-60
2023/12/08 20:59:46;;;;;;;12.10;5.93;;;;;;;;;;10391341;28;20053;-58
2023/12/08 21:04:50;;;;;;;15.98;6.88;;;;;;;;;;10396456;28;20029;-62
2023/12/08 21:09:51;;;;;;;13.73;6.28;;;;;;;;;;10403516;28;20037;-58
2023/12/08 21:14:52;;;;;;;13.05;6.80;;;;;;;;;;10392953;28;20516;-59
2023/12/08 21:19:53;;;;;;;21.10;7.28;;;;;;;;;;10416973;28;20048;-65
2023/12/08 21:24:53;;;;;;;17.17;6.88;;;;;;;;;;10444382;28;20121;-62
2023/12/08 21:29:54;;;;;;;28.73;7.65;;;;;;;;;;10440350;28;20033;-63
2023/12/08 21:34:55;;;;;;;18.85;6.50;;;;;;;;;;10449924;28;20048;-63
2023/12/08 21:39:55;;;;;;;27.33;7.78;;;;;;;;;;10446707;28;20044;-63
2023/12/08 21:45:00;;;;;;;33.72;8.52;;;;;;;;;;10438521;28;20483;-69
2023/12/08 21:50:02;;;;;;;27.98;8.10;;;;;;;;;;10446227;28;20041;-64
2023/12/08 21:55:04;;;;;;;22.63;7.97;;;;;;;;;;10503380;28;20043;-64
2023/12/08 22:00:07;;;;;;;22.17;7.85;;;;;;;;;;10492245;28;20024;-65
2023/12/08 22:05:08;;;;;;;31.30;8.07;;;;;;;;;;10488890;28;20028;-64
2023/12/08 22:10:09;;;;;;;25.10;7.90;;;;;;;;;;10485766;28;20392;-68
2023/12/08 22:15:10;;;;;;;17.55;6.35;;;;;;;;;;10483680;28;20025;-66
2023/12/08 22:20:11;;;;;;;15.68;6.88;;;;;;;;;;10489603;28;20031;-64
2023/12/08 22:25:12;;;;;;;20.27;7.45;;;;;;;;;;10486263;28;20035;-67
2023/12/08 22:30:24;;;;;;;15.60;7.47;;;;;;;;;;10488465;28;20028;-65
2023/12/08 22:35:25;;;;;;;22.15;7.05;;;;;;;;;;10487050;28;20443;-67
2023/12/08 22:40:25;;;;;;;16.65;6.05;;;;;;;;;;10487847;28;20070;-68
2023/12/08 22:45:26;;;;;;;15.27;6.70;;;;;;;;;;10487311;28;20036;-68
2023/12/08 22:50:26;;;;;;;13.82;6.25;;;;;;;;;;10488408;28;20036;-68
2023/12/08 22:55:35;;;;;;;16.08;6.75;;;;;;;;;;10484350;28;20025;-66
2023/12/08 23:00:35;;;;;;;14.50;6.88;;;;;;;;;;10482436;28;20124;-68
2023/12/08 23:05:36;;;;;;;16.77;6.10;;;;;;;;;;10481256;28;20036;-67
2023/12/08 23:10:36;;;;;;;11.93;6.07;;;;;;;;;;10484616;28;20028;-63
2023/12/08 23:15:37;;;;;;;16.52;6.55;;;;;;;;;;10481489;28;20028;-66
2023/12/08 23:20:37;;;;;;;14.27;5.90;;;;;;;;;;10486080;28;20036;-67
2023/12/08 23:25:38;;;;;;;11.02;5.57;;;;;;;;;;10485736;28;20488;-61
2023/12/08 23:30:39;;;;;;;11.35;5.90;;;;;;;;;;10486312;28;20499;-67
2023/12/08 23:35:39;;;;;;;11.55;6.60;;;;;;;;;;10486452;28;20036;-66
2023/12/08 23:40:40;;;;;;;10.68;5.47;;;;;;;;;;10485679;28;20155;-66
2023/12/08 23:45:40;;;;;;;11.52;5.07;;;;;;;;;;10481293;28;20083;-67
2023/12/08 23:50:41;;;;;;;9.73;4.72;;;;;;;;;;10483036;28;20051;-67
2023/12/08 23:55:41;;;;;;;17.65;5.68;;;;;;;;;;10485958;28;20128;-66
